Leipzig, Germany

6:05 PM CET on December 21, 2014 (GMT +0100)
Leipzig / South | Change Station
CLOSE
Current Station
Personal Weather Station
Location: Leipzig, SACHSEN
Elevation: 417 ft
Nearby Weather Stations

Elev 417 ft 51.29 °N, 12.40 °E | Updated 9 seconds ago

Mostly Cloudy
Mostly Cloudy
43.2 °F
Feels Like 37 °F
N
13.0
Wind Variable Wind from SW
Gusts 14.0 mph

Today
High -- | Low -- °F
--% Chance of Precip.
Yesterday
High -- | Low -- °F
Precip. -- in
8:12 AM 4:04 PM
Waning Crescent, 0% visible
Pressure 30.21 in
Visibility 6.2 miles
Clouds Mostly Cloudy 2800 ft
Windchill 37 °F
Dew Point 34 °F
Humidity 71%
Rainfall 0.04 in
Snow Depth Not available.
UV 0.0 out of 12
Pollen Not available.
Air Quality Not available.
Flu Activity Not available.
METAR EDDP 211650Z 23015KT 9999 BKN028 06/03 Q1023 NOSIG

More Conditions Fewer Conditions

Pressure 30.21 in
Visibility 6.2 miles
Clouds Mostly Cloudy 2800 ft
Windchill 37 °F
Dew Point 34 °F
Humidity 71%
Rainfall 0.04 in
Snow Depth Not available.
UV 0.0 out of 12
Pollen Not available.
Air Quality Not available.
Flu Activity Not available.
METAR EDDP 211650Z 23015KT 9999 BKN028 06/03 Q1023 NOSIG

More Conditions Fewer Conditions

10-Day Weather Forecast

Almanac

Astronomy

Dec. 21, 2014 Rise Set
Actual Time
Civil Twilight
Nautical Twilight
Astronomical Twilight
Moon
Length of Visible Light
Length of Day
Tomorrow will be .
, % of the Moon is Illuminated

Today's Extremes

Country Highs Country Lows

Community

WunderPhotos

Upload Photos

1,779,441 photos uploaded!

WunderBlogs® & News

Nearby

Air Quality

  Air Quality AQ Index Pollutant
Not available.

Snow Depth

Station Depth Elevation

Earthquake Activity

City Distance Mag. Time & Date
Minimum magnitude displayed is 2.5.

Coastal Water Temperatures

Place Temperature

Nearby Weather Stations